Terminal Aerodrome Forecast
Issued by NWS Cleveland, OH

Home | Current Version | Previous Version | Graphics & Text | Print | Product List | Glossary Off
Versions: 1 2 3 4 5 6 7 8 9 10 11 12 13 14 15 16 17 18

000
FTUS41 KCLE 201740
TAFMFD
TAF
KMFD 201740Z 2018/2118 21014KT P6SM OVC006
      TEMPO 2018/2022 1 1/2SM BR OVC003
     FM202200 20006KT 6SM BR OVC012
      TEMPO 2022/2102 4SM BR OVC008
     FM210600 18006KT 5SM BR OVC015
      TEMPO 2110/2114 1SM BR OVC008
     FM211500 18011KT 6SM BR OVC020=

USA.gov is the U.S. government's official web portal to all federal, state and local government web resources and services.